Time;durP1;ratioP1;P1;durP2;ratioP2;P2;SDS_P1;SDS_P2;PMS_P1;PMS_P2;Temp;Humidity;BMP_temperature;BMP_pressure;BME280_temperature;BME280_humidity;BME280_pressure;Samples;Min_cycle;Max_cycle;Signal;HPM_P1;HPM_P2
2022/04/09 00:00:14;;;;;;;9.67;2.90;;;;;;;;;;4998821;28;20180;-36
2022/04/09 00:02:40;;;;;;;8.13;2.33;;;;;;;;;;4996996;28;20183;-36
2022/04/09 00:05:07;;;;;;;11.23;3.00;;;;;;;;;;4997777;28;20302;-36
2022/04/09 00:07:33;;;;;;;8.30;2.30;;;;;;;;;;4994208;28;20191;-36
2022/04/09 00:09:59;;;;;;;8.10;2.20;;;;;;;;;;5002435;28;20250;-36
2022/04/09 00:12:26;;;;;;;14.67;2.83;;;;;;;;;;5001511;28;20611;-36
2022/04/09 00:14:52;;;;;;;7.70;2.60;;;;;;;;;;5001090;28;20176;-36
2022/04/09 00:17:18;;;;;;;9.57;2.70;;;;;;;;;;4994939;28;20196;-36
2022/04/09 00:19:44;;;;;;;6.47;2.10;;;;;;;;;;4997774;28;20763;-36
2022/04/09 00:22:13;;;;;;;6.47;2.20;;;;;;;;;;4994480;28;20271;-36
2022/04/09 00:24:39;;;;;;;10.23;2.03;;;;;;;;;;4997463;28;20172;-36
2022/04/09 00:27:05;;;;;;;8.63;2.30;;;;;;;;;;5003932;28;20285;-36
2022/04/09 00:29:31;;;;;;;7.80;2.43;;;;;;;;;;4997469;28;20187;-36
2022/04/09 00:31:57;;;;;;;11.40;3.03;;;;;;;;;;4994014;28;20698;-36
2022/04/09 00:34:24;;;;;;;7.50;2.50;;;;;;;;;;4999810;28;20176;-36
2022/04/09 00:36:50;;;;;;;11.40;2.73;;;;;;;;;;4996112;28;20810;-37
2022/04/09 00:39:16;;;;;;;5.87;2.47;;;;;;;;;;4996555;28;20184;-36
2022/04/09 00:41:49;;;;;;;9.30;2.33;;;;;;;;;;4997058;28;20921;-36
2022/04/09 00:44:19;;;;;;;7.87;2.30;;;;;;;;;;4994971;28;20653;-36
2022/04/09 00:46:45;;;;;;;9.37;3.00;;;;;;;;;;4993357;28;20718;-36
2022/04/09 00:49:12;;;;;;;8.47;2.57;;;;;;;;;;4998454;28;20640;-36
2022/04/09 00:51:40;;;;;;;8.57;2.47;;;;;;;;;;4997986;28;21783;-36
2022/04/09 00:54:07;;;;;;;7.20;2.70;;;;;;;;;;4994822;28;20259;-36
2022/04/09 00:56:34;;;;;;;7.70;2.27;;;;;;;;;;4995793;28;20429;-36
2022/04/09 00:59:06;;;;;;;14.70;2.93;;;;;;;;;;4995329;28;20176;-36
2022/04/09 01:01:34;;;;;;;8.87;2.40;;;;;;;;;;4993568;28;20553;-36
2022/04/09 01:04:00;;;;;;;6.93;2.13;;;;;;;;;;4995502;28;20211;-37
2022/04/09 01:06:26;;;;;;;7.67;2.30;;;;;;;;;;4998239;28;20487;-36
2022/04/09 01:08:52;;;;;;;9.33;2.00;;;;;;;;;;4994677;28;20511;-36
2022/04/09 01:11:19;;;;;;;9.37;2.53;;;;;;;;;;5001441;28;21138;-36
2022/04/09 01:13:45;;;;;;;7.93;2.10;;;;;;;;;;4996196;28;20739;-36
2022/04/09 01:16:12;;;;;;;6.67;2.17;;;;;;;;;;4996205;28;20177;-36
2022/04/09 01:18:41;;;;;;;7.43;2.33;;;;;;;;;;4991388;28;20278;-35
2022/04/09 01:21:07;;;;;;;8.80;2.20;;;;;;;;;;4995137;28;20177;-36
2022/04/09 01:23:33;;;;;;;6.60;2.00;;;;;;;;;;4997150;28;20960;-36
2022/04/09 01:26:00;;;;;;;10.40;2.40;;;;;;;;;;4997002;28;20700;-36
2022/04/09 01:28:26;;;;;;;8.80;2.40;;;;;;;;;;4994015;28;20748;-36
2022/04/09 01:30:53;;;;;;;8.13;2.27;;;;;;;;;;4995010;28;20644;-35
2022/04/09 01:33:19;;;;;;;6.47;2.20;;;;;;;;;;4997356;28;20493;-36
2022/04/09 01:35:46;;;;;;;9.37;2.30;;;;;;;;;;4994949;28;20754;-36
2022/04/09 01:38:13;;;;;;;5.70;1.93;;;;;;;;;;4992553;28;20624;-35
2022/04/09 01:40:39;;;;;;;8.57;2.40;;;;;;;;;;5000149;28;20177;-35
2022/04/09 01:43:05;;;;;;;6.43;2.10;;;;;;;;;;5000034;28;20632;-35
2022/04/09 01:45:31;;;;;;;8.03;2.20;;;;;;;;;;4992145;28;20178;-36
2022/04/09 01:47:58;;;;;;;9.00;2.00;;;;;;;;;;4998139;28;21018;-36
2022/04/09 01:50:26;;;;;;;21.30;2.43;;;;;;;;;;4997781;28;20249;-36
2022/04/09 01:52:52;;;;;;;7.43;2.43;;;;;;;;;;4992581;28;20183;-36
2022/04/09 01:55:18;;;;;;;8.80;2.43;;;;;;;;;;4998151;28;20726;-35
2022/04/09 01:57:44;;;;;;;7.20;2.50;;;;;;;;;;4995263;28;20296;-35
2022/04/09 02:00:12;;;;;;;7.70;2.30;;;;;;;;;;4993015;28;20864;-36
2022/04/09 02:02:38;;;;;;;6.33;2.37;;;;;;;;;;4991944;28;21057;-36
2022/04/09 02:05:05;;;;;;;9.37;2.50;;;;;;;;;;4997296;28;20169;-36
2022/04/09 02:07:31;;;;;;;10.27;2.73;;;;;;;;;;4991541;28;20184;-36
2022/04/09 02:09:57;;;;;;;10.37;2.53;;;;;;;;;;4994368;28;20409;-36
2022/04/09 02:12:23;;;;;;;11.93;2.50;;;;;;;;;;4994955;28;20199;-36
2022/04/09 02:14:52;;;;;;;8.80;2.77;;;;;;;;;;4998599;28;20224;-36
2022/04/09 02:17:18;;;;;;;8.60;2.73;;;;;;;;;;4997334;28;20191;-36
2022/04/09 02:19:44;;;;;;;10.47;3.30;;;;;;;;;;4991501;28;20192;-36
2022/04/09 02:22:10;;;;;;;7.80;2.50;;;;;;;;;;4995075;28;20204;-36
2022/04/09 02:24:36;;;;;;;7.53;2.50;;;;;;;;;;4992762;28;20172;-36
2022/04/09 02:27:02;;;;;;;8.23;2.60;;;;;;;;;;4990508;28;20175;-36
2022/04/09 02:29:29;;;;;;;7.47;2.40;;;;;;;;;;4991083;28;20726;-36
2022/04/09 02:31:56;;;;;;;8.97;2.47;;;;;;;;;;4990897;28;20295;-36
2022/04/09 02:34:23;;;;;;;11.10;2.47;;;;;;;;;;4996450;28;20417;-35
2022/04/09 02:36:49;;;;;;;10.47;2.47;;;;;;;;;;4995371;28;20204;-36
2022/04/09 02:39:19;;;;;;;7.40;2.50;;;;;;;;;;4999340;28;20509;-36
2022/04/09 02:41:45;;;;;;;8.57;2.60;;;;;;;;;;4998781;28;20853;-36
2022/04/09 02:44:11;;;;;;;10.70;2.60;;;;;;;;;;5001211;28;20172;-35
2022/04/09 02:46:38;;;;;;;10.03;2.30;;;;;;;;;;4993137;28;20716;-37
2022/04/09 02:49:04;;;;;;;10.70;2.30;;;;;;;;;;4997461;28;20601;-36
2022/04/09 02:51:30;;;;;;;9.20;2.37;;;;;;;;;;4997262;28;20514;-35
2022/04/09 02:53:56;;;;;;;8.13;2.53;;;;;;;;;;4992111;28;20183;-35
2022/04/09 02:56:22;;;;;;;7.23;2.43;;;;;;;;;;4989569;28;20887;-36
2022/04/09 02:58:49;;;;;;;7.57;2.27;;;;;;;;;;4996549;28;20751;-35
2022/04/09 03:01:15;;;;;;;9.27;2.60;;;;;;;;;;4994199;28;20712;-35
2022/04/09 03:03:41;;;;;;;9.37;2.43;;;;;;;;;;4994011;28;20206;-35
2022/04/09 03:06:07;;;;;;;9.63;2.37;;;;;;;;;;4993712;28;20176;-36
2022/04/09 03:08:33;;;;;;;7.43;2.37;;;;;;;;;;4998247;28;20191;-36
2022/04/09 03:10:59;;;;;;;9.77;2.40;;;;;;;;;;4994013;28;20188;-36
2022/04/09 03:13:25;;;;;;;13.40;2.60;;;;;;;;;;4992646;28;20208;-36
2022/04/09 03:15:51;;;;;;;11.13;3.33;;;;;;;;;;4996518;28;20665;-35
2022/04/09 03:18:17;;;;;;;10.87;2.73;;;;;;;;;;4996162;28;20513;-35
2022/04/09 03:20:43;;;;;;;11.77;2.80;;;;;;;;;;4992398;28;20192;-36
2022/04/09 03:23:09;;;;;;;6.67;2.20;;;;;;;;;;4995411;28;20176;-36
2022/04/09 03:25:36;;;;;;;14.30;3.00;;;;;;;;;;4996221;28;20199;-36
2022/04/09 03:28:02;;;;;;;10.27;2.40;;;;;;;;;;4994637;28;20188;-35
2022/04/09 03:30:28;;;;;;;12.57;3.20;;;;;;;;;;4993724;28;20212;-35
2022/04/09 03:32:54;;;;;;;9.30;2.30;;;;;;;;;;4994495;28;20177;-36
2022/04/09 03:35:20;;;;;;;10.53;2.33;;;;;;;;;;4997637;28;20273;-36
2022/04/09 03:37:46;;;;;;;8.90;2.83;;;;;;;;;;4990793;28;20196;-36
2022/04/09 03:40:13;;;;;;;10.63;2.60;;;;;;;;;;4992883;28;20864;-36
2022/04/09 03:42:39;;;;;;;11.63;2.80;;;;;;;;;;4996716;28;20472;-36
2022/04/09 03:45:06;;;;;;;11.03;2.60;;;;;;;;;;4996412;28;20562;-35
2022/04/09 03:47:35;;;;;;;13.03;2.87;;;;;;;;;;4995273;28;20643;-35
2022/04/09 03:50:02;;;;;;;11.60;2.40;;;;;;;;;;4992255;28;20998;-35
2022/04/09 03:52:28;;;;;;;12.63;2.97;;;;;;;;;;4996645;28;20254;-36
2022/04/09 03:54:54;;;;;;;14.80;2.87;;;;;;;;;;4999858;28;20417;-35
2022/04/09 03:57:20;;;;;;;11.20;2.73;;;;;;;;;;4996321;28;20783;-35
2022/04/09 03:59:46;;;;;;;12.67;2.80;;;;;;;;;;4992784;28;20169;-35
2022/04/09 04:02:12;;;;;;;9.43;2.80;;;;;;;;;;4995106;28;20186;-35
2022/04/09 04:04:38;;;;;;;8.83;2.63;;;;;;;;;;4998843;28;20589;-35
2022/04/09 04:07:05;;;;;;;7.83;2.30;;;;;;;;;;4995947;28;20184;-35
2022/04/09 04:09:31;;;;;;;9.83;2.57;;;;;;;;;;4994549;28;20215;-35
2022/04/09 04:11:58;;;;;;;9.97;2.90;;;;;;;;;;4998242;28;20228;-35
2022/04/09 04:14:25;;;;;;;8.97;2.60;;;;;;;;;;4998628;28;20180;-36
2022/04/09 04:16:52;;;;;;;11.53;2.47;;;;;;;;;;4994374;28;20192;-35
2022/04/09 04:19:18;;;;;;;6.97;2.20;;;;;;;;;;4994382;28;20613;-36
2022/04/09 04:21:44;;;;;;;8.87;2.50;;;;;;;;;;5000134;28;20180;-35
2022/04/09 04:24:11;;;;;;;11.77;2.80;;;;;;;;;;4998635;28;20173;-35
2022/04/09 04:26:37;;;;;;;10.43;2.40;;;;;;;;;;5000383;28;20265;-35
2022/04/09 04:29:03;;;;;;;10.03;2.67;;;;;;;;;;4998657;28;20177;-35
2022/04/09 04:31:29;;;;;;;8.67;2.50;;;;;;;;;;4994697;28;20173;-36
2022/04/09 04:33:55;;;;;;;10.43;2.47;;;;;;;;;;4997155;28;20543;-35
2022/04/09 04:36:21;;;;;;;10.17;2.93;;;;;;;;;;4998481;28;20176;-36
2022/04/09 04:38:48;;;;;;;10.67;2.67;;;;;;;;;;4997289;28;20203;-35
2022/04/09 04:41:14;;;;;;;6.23;2.03;;;;;;;;;;4994737;28;20722;-35
2022/04/09 04:43:40;;;;;;;13.63;3.00;;;;;;;;;;4997942;28;20196;-35
2022/04/09 04:46:06;;;;;;;9.30;2.40;;;;;;;;;;4999915;28;20597;-35
2022/04/09 04:48:33;;;;;;;8.30;2.37;;;;;;;;;;4995303;28;20712;-35
2022/04/09 04:50:59;;;;;;;8.63;2.50;;;;;;;;;;4995392;28;20180;-36
2022/04/09 04:53:25;;;;;;;9.33;2.87;;;;;;;;;;5000228;28;21163;-35
2022/04/09 04:55:51;;;;;;;11.47;2.60;;;;;;;;;;4997314;28;20739;-35
2022/04/09 04:58:20;;;;;;;9.07;2.30;;;;;;;;;;4997908;28;20226;-35
2022/04/09 05:00:47;;;;;;;10.30;2.60;;;;;;;;;;4996687;28;20180;-36
2022/04/09 05:03:13;;;;;;;11.10;2.63;;;;;;;;;;4997090;28;20669;-35
2022/04/09 05:05:39;;;;;;;9.70;2.63;;;;;;;;;;4996313;28;20441;-35
2022/04/09 05:08:05;;;;;;;11.33;2.57;;;;;;;;;;4996015;28;20199;-36
2022/04/09 05:10:31;;;;;;;8.63;2.50;;;;;;;;;;4995267;28;20238;-35
2022/04/09 05:12:59;;;;;;;9.30;2.17;;;;;;;;;;4999100;28;20537;-35
2022/04/09 05:15:25;;;;;;;12.77;2.40;;;;;;;;;;4994598;28;20246;-36
2022/04/09 05:17:51;;;;;;;11.37;2.47;;;;;;;;;;4993914;28;20208;-35
2022/04/09 05:20:17;;;;;;;8.60;2.40;;;;;;;;;;4999755;28;20459;-36
2022/04/09 05:22:46;;;;;;;14.00;3.07;;;;;;;;;;5000049;28;20169;-36
2022/04/09 05:25:13;;;;;;;9.30;3.00;;;;;;;;;;4996582;28;20278;-36
2022/04/09 05:27:40;;;;;;;12.00;2.50;;;;;;;;;;4993493;28;20514;-36
2022/04/09 05:30:06;;;;;;;11.33;2.33;;;;;;;;;;4997733;28;20201;-36
2022/04/09 05:32:33;;;;;;;9.70;2.30;;;;;;;;;;4999944;28;20623;-36
2022/04/09 05:34:59;;;;;;;10.83;2.53;;;;;;;;;;5007789;28;20617;-36
2022/04/09 05:37:28;;;;;;;10.37;2.50;;;;;;;;;;4994001;28;20413;-36
2022/04/09 05:39:55;;;;;;;11.53;2.77;;;;;;;;;;4997755;28;21210;-35
2022/04/09 05:42:23;;;;;;;6.07;1.67;;;;;;;;;;4999104;28;20753;-35
2022/04/09 05:44:50;;;;;;;16.00;3.13;;;;;;;;;;4991470;28;20187;-35
2022/04/09 05:47:16;;;;;;;10.17;2.93;;;;;;;;;;4995149;28;20625;-36
2022/04/09 05:49:42;;;;;;;9.20;2.87;;;;;;;;;;4997761;28;20281;-36
2022/04/09 05:52:08;;;;;;;9.77;2.40;;;;;;;;;;4999383;28;20440;-36
2022/04/09 05:54:34;;;;;;;12.00;2.63;;;;;;;;;;4996403;28;20198;-36
2022/04/09 05:57:02;;;;;;;11.03;2.60;;;;;;;;;;4992128;28;20709;-35
2022/04/09 05:59:30;;;;;;;10.03;2.67;;;;;;;;;;4995895;28;20283;-35
2022/04/09 06:01:56;;;;;;;8.73;2.50;;;;;;;;;;4998473;28;20608;-36
2022/04/09 06:04:22;;;;;;;8.50;2.23;;;;;;;;;;4993367;28;20176;-35
2022/04/09 06:06:49;;;;;;;9.67;2.60;;;;;;;;;;4996831;28;20505;-36
2022/04/09 06:09:15;;;;;;;12.87;2.80;;;;;;;;;;4997570;28;20241;-36
2022/04/09 06:11:42;;;;;;;12.23;2.87;;;;;;;;;;4998526;28;20176;-36
2022/04/09 06:14:08;;;;;;;11.53;2.77;;;;;;;;;;4994324;28;20176;-36
2022/04/09 06:16:38;;;;;;;11.43;2.57;;;;;;;;;;4994810;28;20487;-36
2022/04/09 06:19:04;;;;;;;9.13;2.87;;;;;;;;;;4996629;28;20176;-36
2022/04/09 06:21:30;;;;;;;14.33;2.63;;;;;;;;;;4998022;28;20392;-36
2022/04/09 06:23:56;;;;;;;10.07;2.47;;;;;;;;;;4993336;28;20180;-36
2022/04/09 06:26:22;;;;;;;9.23;3.03;;;;;;;;;;4997418;28;20759;-35
2022/04/09 06:28:49;;;;;;;11.07;2.77;;;;;;;;;;4995500;28;20173;-36
2022/04/09 06:31:15;;;;;;;10.40;2.70;;;;;;;;;;4993258;28;20652;-36
2022/04/09 06:33:41;;;;;;;9.93;2.70;;;;;;;;;;4994780;28;20975;-36
2022/04/09 06:36:07;;;;;;;13.00;3.23;;;;;;;;;;5004403;28;21006;-37
2022/04/09 06:38:34;;;;;;;7.03;2.47;;;;;;;;;;5004336;28;20243;-37
2022/04/09 06:41:00;;;;;;;9.40;2.93;;;;;;;;;;4992878;28;20187;-36
2022/04/09 06:43:26;;;;;;;12.03;2.70;;;;;;;;;;4996377;28;20226;-36
2022/04/09 06:45:52;;;;;;;12.67;2.97;;;;;;;;;;5000376;28;20183;-37
2022/04/09 06:48:18;;;;;;;12.13;2.40;;;;;;;;;;4995783;28;20181;-36
2022/04/09 06:50:45;;;;;;;9.80;2.67;;;;;;;;;;4997237;28;20177;-36
2022/04/09 06:53:11;;;;;;;10.03;2.60;;;;;;;;;;4988341;28;20187;-36
2022/04/09 06:55:38;;;;;;;13.43;3.00;;;;;;;;;;5000745;28;20671;-37
2022/04/09 06:58:04;;;;;;;8.13;3.00;;;;;;;;;;4996802;28;20655;-36
2022/04/09 07:00:33;;;;;;;13.90;2.77;;;;;;;;;;4991957;28;20296;-37
2022/04/09 07:03:00;;;;;;;10.43;2.73;;;;;;;;;;4995561;28;20242;-36
2022/04/09 07:05:26;;;;;;;10.40;2.57;;;;;;;;;;4998678;28;20505;-37
2022/04/09 07:07:53;;;;;;;8.67;2.70;;;;;;;;;;4994688;28;20388;-37
2022/04/09 07:10:19;;;;;;;10.87;2.63;;;;;;;;;;4997231;28;20196;-36
2022/04/09 07:12:45;;;;;;;7.60;2.40;;;;;;;;;;4997379;28;20856;-37
2022/04/09 07:15:11;;;;;;;10.60;2.50;;;;;;;;;;4999470;28;20220;-36
2022/04/09 07:17:38;;;;;;;8.20;2.20;;;;;;;;;;4991920;28;20635;-37
2022/04/09 07:20:08;;;;;;;7.20;2.10;;;;;;;;;;4995806;28;20183;-37
2022/04/09 07:22:35;;;;;;;12.30;2.73;;;;;;;;;;4998168;28;21030;-37
2022/04/09 07:25:01;;;;;;;10.83;2.70;;;;;;;;;;4999064;28;20478;-36
2022/04/09 07:27:35;;;;;;;8.43;2.30;;;;;;;;;;4994434;28;20293;-37
2022/04/09 07:30:01;;;;;;;10.43;2.30;;;;;;;;;;4995417;28;20184;-36
2022/04/09 07:32:27;;;;;;;8.20;2.27;;;;;;;;;;4999889;28;20185;-37
2022/04/09 07:34:53;;;;;;;8.77;2.67;;;;;;;;;;5003835;28;20716;-38
2022/04/09 07:37:19;;;;;;;7.93;2.27;;;;;;;;;;4999295;28;20694;-37
2022/04/09 07:39:45;;;;;;;7.03;2.17;;;;;;;;;;4994272;28;20434;-37
2022/04/09 07:42:11;;;;;;;8.07;2.60;;;;;;;;;;4993425;28;20283;-38
2022/04/09 07:44:37;;;;;;;10.97;2.40;;;;;;;;;;5000241;28;20168;-37
2022/04/09 07:47:04;;;;;;;7.07;2.10;;;;;;;;;;5000052;28;20634;-37
2022/04/09 07:49:30;;;;;;;9.20;2.70;;;;;;;;;;4999951;28;20928;-37
2022/04/09 07:51:56;;;;;;;9.60;3.07;;;;;;;;;;4999279;28;20200;-37
2022/04/09 07:54:24;;;;;;;9.30;2.43;;;;;;;;;;5005323;28;20200;-37
2022/04/09 07:56:50;;;;;;;7.57;2.10;;;;;;;;;;5000116;28;20394;-37
2022/04/09 07:59:16;;;;;;;8.87;2.37;;;;;;;;;;5000104;28;20621;-37
2022/04/09 08:01:42;;;;;;;12.60;2.23;;;;;;;;;;5001200;28;20658;-38
2022/04/09 08:04:08;;;;;;;11.00;2.50;;;;;;;;;;5005038;28;20255;-37
2022/04/09 08:06:35;;;;;;;13.37;2.60;;;;;;;;;;4998953;28;20188;-37
2022/04/09 08:09:01;;;;;;;5.43;1.93;;;;;;;;;;5000917;28;20215;-38
2022/04/09 08:11:28;;;;;;;7.33;2.10;;;;;;;;;;5005551;28;20980;-37
2022/04/09 08:13:54;;;;;;;7.07;2.50;;;;;;;;;;5003731;28;20631;-37
2022/04/09 08:16:20;;;;;;;6.60;2.30;;;;;;;;;;4998534;28;20640;-37
2022/04/09 08:18:46;;;;;;;6.93;2.40;;;;;;;;;;5001210;28;20188;-37
2022/04/09 08:21:13;;;;;;;6.60;2.17;;;;;;;;;;5004954;28;20802;-37
2022/04/09 08:23:40;;;;;;;10.23;2.37;;;;;;;;;;5002547;28;20211;-37
2022/04/09 08:26:06;;;;;;;6.97;2.00;;;;;;;;;;5003994;28;20673;-38
2022/04/09 08:28:36;;;;;;;7.70;2.30;;;;;;;;;;5000092;28;21112;-37
2022/04/09 08:31:02;;;;;;;9.70;2.37;;;;;;;;;;4999880;28;20892;-38
2022/04/09 08:33:28;;;;;;;9.30;2.33;;;;;;;;;;5000795;28;20176;-38
2022/04/09 08:35:54;;;;;;;8.00;2.53;;;;;;;;;;5000544;28;20196;-37
2022/04/09 08:38:20;;;;;;;9.40;2.53;;;;;;;;;;4999285;28;20212;-38
2022/04/09 08:40:47;;;;;;;9.17;2.30;;;;;;;;;;5002913;28;20662;-38
2022/04/09 08:43:16;;;;;;;9.93;2.20;;;;;;;;;;5004534;28;20501;-37
2022/04/09 08:45:42;;;;;;;11.00;3.13;;;;;;;;;;5000759;28;20179;-37
2022/04/09 08:48:09;;;;;;;6.07;1.87;;;;;;;;;;5000605;28;20190;-37
2022/04/09 08:50:36;;;;;;;6.07;1.90;;;;;;;;;;5001092;28;20173;-38
2022/04/09 08:53:06;;;;;;;6.23;2.17;;;;;;;;;;4999605;28;20651;-38
2022/04/09 08:55:40;;;;;;;6.77;1.83;;;;;;;;;;5005415;28;20191;-38
2022/04/09 08:58:06;;;;;;;7.57;1.80;;;;;;;;;;5000697;28;20243;-37
2022/04/09 09:00:33;;;;;;;6.20;1.97;;;;;;;;;;4995709;28;20721;-38
2022/04/09 09:03:00;;;;;;;4.47;1.40;;;;;;;;;;5001965;28;21018;-38
2022/04/09 09:05:34;;;;;;;7.87;1.60;;;;;;;;;;5004593;28;20769;-38
2022/04/09 09:08:00;;;;;;;6.43;1.63;;;;;;;;;;4998714;28;20189;-39
2022/04/09 09:10:27;;;;;;;5.57;1.90;;;;;;;;;;5001018;28;20540;-38
2022/04/09 09:13:03;;;;;;;3.90;1.40;;;;;;;;;;5002550;28;20181;-37
2022/04/09 09:15:30;;;;;;;9.33;1.67;;;;;;;;;;5003127;28;20660;-39
2022/04/09 09:17:59;;;;;;;7.40;2.17;;;;;;;;;;4998840;28;20255;-37
2022/04/09 09:20:26;;;;;;;7.17;1.77;;;;;;;;;;5003033;28;20627;-38
2022/04/09 09:22:52;;;;;;;5.97;1.90;;;;;;;;;;5004100;28;20288;-38
2022/04/09 09:25:19;;;;;;;5.87;1.60;;;;;;;;;;4999139;28;20604;-38
2022/04/09 09:27:45;;;;;;;7.53;1.60;;;;;;;;;;4997233;28;20180;-39
2022/04/09 09:30:14;;;;;;;7.40;1.87;;;;;;;;;;5004694;28;20173;-37
2022/04/09 09:32:44;;;;;;;6.53;1.70;;;;;;;;;;5003754;28;20873;-37
2022/04/09 09:35:10;;;;;;;5.73;1.57;;;;;;;;;;4996956;28;20608;-37
2022/04/09 09:37:37;;;;;;;8.40;1.77;;;;;;;;;;5002832;28;20206;-37
2022/04/09 09:40:04;;;;;;;6.00;2.00;;;;;;;;;;5000056;28;20750;-38
2022/04/09 09:42:33;;;;;;;7.43;2.00;;;;;;;;;;5000575;28;20673;-38
2022/04/09 09:44:59;;;;;;;8.77;1.97;;;;;;;;;;5005293;28;20168;-38
2022/04/09 09:47:25;;;;;;;5.00;1.80;;;;;;;;;;5001368;28;20249;-38
2022/04/09 09:49:56;;;;;;;3.93;1.60;;;;;;;;;;5001819;28;20184;-37
2022/04/09 09:52:25;;;;;;;5.30;1.80;;;;;;;;;;4993378;28;20288;-39
2022/04/09 09:55:06;;;;;;;8.00;1.97;;;;;;;;;;4990334;28;21015;-37
2022/04/09 09:57:33;;;;;;;6.33;1.60;;;;;;;;;;4991338;28;20236;-37
2022/04/09 10:00:01;;;;;;;5.83;1.57;;;;;;;;;;4997188;28;20717;-37
2022/04/09 10:02:27;;;;;;;6.67;1.50;;;;;;;;;;4999037;28;20588;-38
2022/04/09 10:04:54;;;;;;;4.03;1.30;;;;;;;;;;4992651;28;20184;-37
2022/04/09 10:07:21;;;;;;;4.50;1.43;;;;;;;;;;4993751;28;20180;-37
2022/04/09 10:09:49;;;;;;;3.83;1.37;;;;;;;;;;4997103;28;20432;-37
2022/04/09 10:12:21;;;;;;;6.33;1.93;;;;;;;;;;4999484;28;20371;-37
2022/04/09 10:14:52;;;;;;;5.07;1.40;;;;;;;;;;4994834;28;20211;-37
2022/04/09 10:17:19;;;;;;;11.00;1.50;;;;;;;;;;4996193;28;20517;-37
2022/04/09 10:19:49;;;;;;;9.47;1.60;;;;;;;;;;4996749;28;20219;-34
2022/04/09 10:22:16;;;;;;;7.13;1.73;;;;;;;;;;4995135;28;20722;-35
2022/04/09 10:24:43;;;;;;;5.73;1.60;;;;;;;;;;4992182;28;20172;-37
2022/04/09 10:27:09;;;;;;;4.53;1.50;;;;;;;;;;4998214;28;20624;-37
2022/04/09 10:29:48;;;;;;;24.80;1.63;;;;;;;;;;4995014;28;21059;-36
2022/04/09 10:32:34;;;;;;;5.80;1.40;;;;;;;;;;4990793;28;20373;-37
2022/04/09 10:35:00;;;;;;;6.37;1.17;;;;;;;;;;4996371;28;20195;-37
2022/04/09 10:37:27;;;;;;;10.60;1.77;;;;;;;;;;4993511;28;20204;-37
2022/04/09 10:39:53;;;;;;;4.27;1.47;;;;;;;;;;4994821;28;20555;-37
2022/04/09 10:42:38;;;;;;;4.73;1.60;;;;;;;;;;4998000;28;20264;-37
2022/04/09 10:45:05;;;;;;;7.43;2.37;;;;;;;;;;4990727;28;20631;-36
2022/04/09 10:47:51;;;;;;;10.67;2.07;;;;;;;;;;4993220;28;20188;-36
2022/04/09 10:50:17;;;;;;;7.10;1.73;;;;;;;;;;4998210;28;20219;-36
2022/04/09 10:52:48;;;;;;;6.97;1.87;;;;;;;;;;5000072;28;20181;-36
2022/04/09 10:55:15;;;;;;;6.20;2.10;;;;;;;;;;4995488;28;21146;-36
2022/04/09 10:57:49;;;;;;;4.07;1.77;;;;;;;;;;4996149;28;20303;-37
2022/04/09 11:00:23;;;;;;;7.20;1.80;;;;;;;;;;4995832;28;20434;-36
2022/04/09 11:03:05;;;;;;;4.30;1.50;;;;;;;;;;4996670;28;20261;-36
2022/04/09 11:05:33;;;;;;;6.67;1.53;;;;;;;;;;4993555;28;21016;-36
2022/04/09 11:08:06;;;;;;;3.77;1.53;;;;;;;;;;4996055;28;21056;-37
2022/04/09 11:10:32;;;;;;;5.40;1.50;;;;;;;;;;4998500;28;20172;-36
2022/04/09 11:12:58;;;;;;;4.67;1.53;;;;;;;;;;5003561;28;20249;-36
2022/04/09 11:15:27;;;;;;;3.30;0.90;;;;;;;;;;4996887;28;20359;-36
2022/04/09 11:17:59;;;;;;;3.27;0.90;;;;;;;;;;4997474;28;20226;-35
2022/04/09 11:20:30;;;;;;;2.27;0.83;;;;;;;;;;5000617;28;21090;-36
2022/04/09 11:22:56;;;;;;;3.10;0.90;;;;;;;;;;5001673;28;20188;-36
2022/04/09 11:25:29;;;;;;;3.53;0.90;;;;;;;;;;5001578;28;20635;-36
2022/04/09 11:28:06;;;;;;;1.93;0.80;;;;;;;;;;5004115;28;20188;-36
2022/04/09 11:30:32;;;;;;;3.93;0.70;;;;;;;;;;5007136;28;20176;-36
2022/04/09 11:32:58;;;;;;;3.13;0.97;;;;;;;;;;5003515;28;20564;-36
2022/04/09 11:35:24;;;;;;;2.67;0.90;;;;;;;;;;5002034;28;20777;-36
2022/04/09 11:37:51;;;;;;;1.70;0.60;;;;;;;;;;5000359;28;20235;-36
2022/04/09 11:40:21;;;;;;;5.53;0.97;;;;;;;;;;5002527;28;20169;-36
2022/04/09 11:42:48;;;;;;;4.07;0.90;;;;;;;;;;5005907;28;20194;-36
2022/04/09 11:45:32;;;;;;;1.80;0.77;;;;;;;;;;5001861;28;20176;-36
2022/04/09 11:47:59;;;;;;;5.37;0.83;;;;;;;;;;5002050;28;20191;-35
2022/04/09 11:50:26;;;;;;;2.43;0.67;;;;;;;;;;5003913;28;20620;-36
2022/04/09 11:52:52;;;;;;;1.70;0.70;;;;;;;;;;5002551;28;20596;-36
2022/04/09 11:55:18;;;;;;;4.00;0.70;;;;;;;;;;4999701;28;20189;-36
2022/04/09 11:57:52;;;;;;;2.23;0.80;;;;;;;;;;5001133;28;20208;-36
2022/04/09 12:00:19;;;;;;;2.63;0.70;;;;;;;;;;5005710;28;20457;-36
2022/04/09 12:02:45;;;;;;;2.97;0.93;;;;;;;;;;5002009;28;20757;-36
2022/04/09 12:05:12;;;;;;;2.67;1.17;;;;;;;;;;5003529;28;20251;-36
2022/04/09 12:07:41;;;;;;;2.00;0.70;;;;;;;;;;5001646;28;20180;-36
2022/04/09 12:10:09;;;;;;;1.90;1.30;;;;;;;;;;5005436;28;20195;-36
2022/04/09 12:12:38;;;;;;;2.10;1.27;;;;;;;;;;5004239;28;20485;-36
2022/04/09 12:15:05;;;;;;;2.77;1.30;;;;;;;;;;5004821;28;20314;-36
2022/04/09 12:17:32;;;;;;;7.87;1.23;;;;;;;;;;5004081;28;20210;-36
2022/04/09 12:19:58;;;;;;;3.87;1.73;;;;;;;;;;5005927;28;20180;-35
2022/04/09 12:22:24;;;;;;;2.50;1.10;;;;;;;;;;4998335;28;20232;-36
2022/04/09 12:24:58;;;;;;;3.97;1.63;;;;;;;;;;5002228;28;20413;-36
2022/04/09 12:27:46;;;;;;;5.27;1.43;;;;;;;;;;5002153;28;20195;-36
2022/04/09 12:30:13;;;;;;;3.17;1.10;;;;;;;;;;5005269;28;20176;-36
2022/04/09 12:32:41;;;;;;;1.70;1.07;;;;;;;;;;5002580;28;20192;-36
2022/04/09 12:35:08;;;;;;;1.93;1.00;;;;;;;;;;5004068;28;20561;-36
2022/04/09 12:37:44;;;;;;;3.03;1.00;;;;;;;;;;5000170;28;20204;-37
2022/04/09 12:40:25;;;;;;;5.40;1.50;;;;;;;;;;5000431;28;20603;-36
2022/04/09 12:42:52;;;;;;;6.20;1.43;;;;;;;;;;5004368;28;20214;-36
2022/04/09 12:45:23;;;;;;;5.10;1.13;;;;;;;;;;5002050;28;20928;-36
2022/04/09 12:47:55;;;;;;;4.63;1.30;;;;;;;;;;5000719;28;20188;-36
2022/04/09 12:50:23;;;;;;;4.90;1.00;;;;;;;;;;5004209;28;20632;-35
2022/04/09 12:52:50;;;;;;;5.83;1.00;;;;;;;;;;5007771;28;20259;-36
2022/04/09 12:55:17;;;;;;;3.07;0.90;;;;;;;;;;5002618;28;20659;-37
2022/04/09 12:57:43;;;;;;;5.17;0.87;;;;;;;;;;4996554;28;20197;-36
2022/04/09 13:00:09;;;;;;;5.27;1.03;;;;;;;;;;5001004;28;20168;-37
2022/04/09 13:02:36;;;;;;;7.27;1.30;;;;;;;;;;5003041;28;20627;-36
2022/04/09 13:05:03;;;;;;;5.97;1.10;;;;;;;;;;4998418;28;20181;-37
2022/04/09 13:07:29;;;;;;;2.70;0.80;;;;;;;;;;5005907;28;20189;-34
2022/04/09 13:09:55;;;;;;;4.63;1.43;;;;;;;;;;5003778;28;20234;-35
2022/04/09 13:12:21;;;;;;;4.00;1.07;;;;;;;;;;5002997;28;20176;-35
2022/04/09 13:14:47;;;;;;;3.97;1.17;;;;;;;;;;4998602;28;20297;-35
2022/04/09 13:17:13;;;;;;;5.80;1.13;;;;;;;;;;5001341;28;20657;-36
2022/04/09 13:19:39;;;;;;;2.70;0.80;;;;;;;;;;5008136;28;20215;-36
2022/04/09 13:22:05;;;;;;;4.93;0.90;;;;;;;;;;4999050;28;20180;-35
2022/04/09 13:24:32;;;;;;;3.03;0.80;;;;;;;;;;5001366;28;20206;-35
2022/04/09 13:26:58;;;;;;;4.00;0.77;;;;;;;;;;5000749;28;20258;-35
2022/04/09 13:29:24;;;;;;;6.87;1.00;;;;;;;;;;5002675;28;20171;-35
2022/04/09 13:31:50;;;;;;;5.20;0.80;;;;;;;;;;4999711;28;20258;-36
2022/04/09 13:34:17;;;;;;;4.90;0.90;;;;;;;;;;4998626;28;20172;-35
2022/04/09 13:36:44;;;;;;;4.27;1.03;;;;;;;;;;5004557;28;20192;-35
2022/04/09 13:39:11;;;;;;;5.63;0.90;;;;;;;;;;5003050;28;20258;-35
2022/04/09 13:41:38;;;;;;;6.57;0.87;;;;;;;;;;4999062;28;20173;-35
2022/04/09 13:44:04;;;;;;;5.10;0.97;;;;;;;;;;5001649;28;20185;-35
2022/04/09 13:46:30;;;;;;;3.50;0.90;;;;;;;;;;4998449;28;20172;-35
2022/04/09 13:48:56;;;;;;;5.30;1.03;;;;;;;;;;5005346;28;20219;-36
2022/04/09 13:51:22;;;;;;;3.77;1.10;;;;;;;;;;4998052;28;20168;-35
2022/04/09 13:53:49;;;;;;;3.93;1.00;;;;;;;;;;4998272;28;20179;-35
2022/04/09 13:56:15;;;;;;;5.73;0.80;;;;;;;;;;4997795;28;20176;-36
2022/04/09 13:58:41;;;;;;;5.07;0.70;;;;;;;;;;5001589;28;20602;-35
2022/04/09 14:01:09;;;;;;;2.90;0.80;;;;;;;;;;4976028;28;20252;-35
2022/04/09 14:03:35;;;;;;;3.73;0.80;;;;;;;;;;4995606;28;20187;-36
2022/04/09 14:06:01;;;;;;;9.23;1.00;;;;;;;;;;4995015;28;22377;-35
2022/04/09 14:08:27;;;;;;;6.37;1.00;;;;;;;;;;4997634;28;20434;-36
2022/04/09 14:10:54;;;;;;;4.20;0.80;;;;;;;;;;4995731;28;20215;-36
2022/04/09 14:13:20;;;;;;;5.33;0.70;;;;;;;;;;4992936;28;20172;-36
2022/04/09 14:15:46;;;;;;;6.90;0.90;;;;;;;;;;4994958;28;20177;-36
2022/04/09 14:18:12;;;;;;;6.43;0.80;;;;;;;;;;4994702;28;20357;-36
2022/04/09 14:20:38;;;;;;;4.10;0.80;;;;;;;;;;4997279;28;20375;-36
2022/04/09 14:23:05;;;;;;;3.23;0.70;;;;;;;;;;4995862;28;20172;-36
2022/04/09 14:25:32;;;;;;;7.07;0.80;;;;;;;;;;4991747;28;20173;-37
2022/04/09 14:27:58;;;;;;;3.90;0.80;;;;;;;;;;4993898;28;20172;-36
2022/04/09 14:30:24;;;;;;;3.37;0.80;;;;;;;;;;4997534;28;20495;-35
2022/04/09 14:32:51;;;;;;;2.77;0.70;;;;;;;;;;4989387;28;20557;-36
2022/04/09 14:35:17;;;;;;;3.90;0.90;;;;;;;;;;4991343;28;20172;-37
2022/04/09 14:37:47;;;;;;;1.93;0.70;;;;;;;;;;4995702;28;20193;-36
2022/04/09 14:40:13;;;;;;;7.80;1.33;;;;;;;;;;4993645;28;20774;-36